createdAt,value
2018-08-03T00:02:10.855Z,50.28
2018-08-03T00:05:35.547Z,51.67
2018-08-03T00:09:02.484Z,51.58
2018-08-03T00:12:27.102Z,52.02
2018-08-03T00:15:51.579Z,52.37
2018-08-03T00:19:16.044Z,52.54
2018-08-03T00:22:40.491Z,52.67
2018-08-03T00:26:04.971Z,51.85
2018-08-03T00:29:29.411Z,52.71
2018-08-03T00:32:53.895Z,53.28
2018-08-03T00:36:18.366Z,53.28
2018-08-03T00:39:42.814Z,53.31
2018-08-03T00:43:07.423Z,53.92
2018-08-03T00:46:31.860Z,53.68
2018-08-03T00:49:56.364Z,52.70
2018-08-03T00:53:20.499Z,53.20
2018-08-03T00:56:44.993Z,54.96
2018-08-03T01:00:09.409Z,55.07
2018-08-03T01:03:33.887Z,54.39
2018-08-03T01:06:58.402Z,54.92
2018-08-03T01:10:22.832Z,54.73
2018-08-03T01:13:47.278Z,54.94
2018-08-03T01:17:11.698Z,55.22
2018-08-03T01:20:36.124Z,54.95
2018-08-03T01:24:00.606Z,55.47
2018-08-03T01:27:25.058Z,56.16
2018-08-03T01:30:49.696Z,55.40
2018-08-03T01:34:14.208Z,55.31
2018-08-03T01:37:38.671Z,54.88
2018-08-03T01:41:03.345Z,56.08
2018-08-03T01:44:27.814Z,56.15
2018-08-03T01:47:52.266Z,56.63
2018-08-03T01:51:16.424Z,56.93
2018-08-03T01:54:40.851Z,55.63
2018-08-03T01:58:05.295Z,55.32
2018-08-03T02:01:29.726Z,55.52
2018-08-03T02:04:54.163Z,56.35
2018-08-03T02:08:18.799Z,56.21
2018-08-03T02:11:43.256Z,55.65
2018-08-03T02:15:08.210Z,55.94
2018-08-03T02:18:32.722Z,55.68
2018-08-03T02:21:57.262Z,56.78
2018-08-03T02:25:21.665Z,56.32
2018-08-03T02:28:46.080Z,56.35
2018-08-03T02:32:11.134Z,57.71
2018-08-03T02:35:35.595Z,57.34
2018-08-03T02:39:00.027Z,57.78
2018-08-03T02:42:24.481Z,57.33
2018-08-03T02:45:48.953Z,57.03
2018-08-03T02:49:13.416Z,57.55
2018-08-03T02:52:37.871Z,57.87
2018-08-03T02:56:02.314Z,57.81
2018-08-03T02:59:26.749Z,58.78
2018-08-03T03:02:51.189Z,57.39
2018-08-03T03:06:15.609Z,57.58
2018-08-03T03:09:40.061Z,59.39
2018-08-03T03:13:04.475Z,58.44
2018-08-03T03:16:28.876Z,58.87
2018-08-03T03:19:53.451Z,59.60
2018-08-03T03:23:17.911Z,59.02
2018-08-03T03:26:42.743Z,59.16
2018-08-03T03:30:08.845Z,58.70
2018-08-03T03:33:33.316Z,59.43
2018-08-03T03:36:57.743Z,60.36
2018-08-03T03:40:22.302Z,60.56
2018-08-03T03:43:46.716Z,61.25
2018-08-03T03:47:11.162Z,60.54
2018-08-03T03:50:35.669Z,60.01
2018-08-03T03:54:00.260Z,61.38
2018-08-03T03:57:24.692Z,60.44
2018-08-03T04:00:49.329Z,60.85
2018-08-03T04:04:13.745Z,61.08
2018-08-03T04:07:38.175Z,60.14
2018-08-03T04:11:02.773Z,60.57
2018-08-03T04:14:27.147Z,60.39
2018-08-03T04:17:51.556Z,59.88
2018-08-03T04:21:15.976Z,61.12
2018-08-03T04:24:40.400Z,60.97
2018-08-03T04:28:04.889Z,60.54
2018-08-03T04:31:29.317Z,60.99
2018-08-03T04:34:53.729Z,61.50
2018-08-03T04:38:18.161Z,61.07
2018-08-03T04:41:42.570Z,61.14
2018-08-03T04:45:07.058Z,61.19
2018-08-03T04:48:31.547Z,60.71
2018-08-03T04:51:55.955Z,61.08
2018-08-03T04:55:20.386Z,61.21
2018-08-03T04:58:44.833Z,62.16
2018-08-03T05:02:10.756Z,61.77
2018-08-03T05:05:35.265Z,62.33
2018-08-03T05:08:59.704Z,60.81
2018-08-03T05:12:24.171Z,61.07
2018-08-03T05:15:48.693Z,62.30
2018-08-03T05:19:13.102Z,61.14
2018-08-03T05:22:37.604Z,61.28
2018-08-03T05:26:02.064Z,61.08
2018-08-03T05:29:26.458Z,60.20
2018-08-03T05:32:50.877Z,60.27
2018-08-03T05:36:15.447Z,61.04
2018-08-03T05:39:39.870Z,60.87
2018-08-03T05:43:04.335Z,59.06
2018-08-03T05:46:28.767Z,59.83
2018-08-03T05:49:53.298Z,58.95
2018-08-03T05:53:17.710Z,58.27
2018-08-03T05:56:42.147Z,58.17
2018-08-03T06:00:07.195Z,56.57
2018-08-03T06:03:31.627Z,56.87
2018-08-03T06:06:56.041Z,57.03
2018-08-03T06:10:20.496Z,55.98
2018-08-03T06:13:44.950Z,56.59
2018-08-03T06:17:09.450Z,55.05
2018-08-03T06:20:33.885Z,53.90
2018-08-03T06:23:58.386Z,53.85
2018-08-03T06:27:22.952Z,54.75
2018-08-03T06:30:47.492Z,54.66
2018-08-03T06:34:11.987Z,52.25
2018-08-03T06:37:36.810Z,52.58
2018-08-03T06:41:01.320Z,52.12
2018-08-03T06:44:25.710Z,51.38
2018-08-03T06:47:50.104Z,51.96
2018-08-03T06:51:14.515Z,50.41
2018-08-03T06:54:38.920Z,49.66
2018-08-03T06:58:03.371Z,50.39
2018-08-03T07:01:27.799Z,49.65
2018-08-03T07:04:52.386Z,48.42
2018-08-03T07:08:16.817Z,47.73
2018-08-03T07:11:41.330Z,48.10
2018-08-03T07:15:06.137Z,47.85
2018-08-03T07:18:30.602Z,47.84
2018-08-03T07:21:55.079Z,47.71
2018-08-03T07:25:21.302Z,47.04
2018-08-03T07:28:45.900Z,47.50
2018-08-03T07:32:10.317Z,47.27
2018-08-03T07:35:34.754Z,45.94
2018-08-03T07:38:59.192Z,45.95
2018-08-03T07:42:23.687Z,46.19
2018-08-03T07:45:48.206Z,45.74
2018-08-03T07:49:12.645Z,44.51
2018-08-03T07:52:37.199Z,44.87
2018-08-03T07:56:01.507Z,44.06
2018-08-03T07:59:25.953Z,44.02
2018-08-03T08:02:50.560Z,43.21
2018-08-03T08:06:15.003Z,43.99
2018-08-03T08:09:39.559Z,44.41
2018-08-03T08:13:03.933Z,44.64
2018-08-03T08:16:28.380Z,43.66
2018-08-03T08:19:52.848Z,44.84
2018-08-03T08:23:17.329Z,43.67
2018-08-03T08:26:41.823Z,43.36
2018-08-03T08:30:07.230Z,42.50
2018-08-03T08:33:31.681Z,41.46
2018-08-03T08:36:56.176Z,42.53
2018-08-03T08:40:20.576Z,42.23
2018-08-03T08:43:45.060Z,42.48
2018-08-03T08:47:10.006Z,42.03
2018-08-03T08:50:34.467Z,40.89
2018-08-03T08:53:58.896Z,41.95
2018-08-03T08:57:23.410Z,41.44
2018-08-03T09:00:47.864Z,39.19
2018-08-03T09:04:12.359Z,38.98
2018-08-03T09:07:36.875Z,40.44
2018-08-03T09:11:01.261Z,39.22
2018-08-03T09:14:25.798Z,39.85
2018-08-03T09:17:50.245Z,38.78
2018-08-03T09:21:14.792Z,38.45
2018-08-03T09:24:39.298Z,38.72
2018-08-03T09:28:03.664Z,38.63
2018-08-03T09:31:28.139Z,38.18
2018-08-03T09:34:52.628Z,37.63
2018-08-03T09:38:17.090Z,37.22
2018-08-03T09:41:41.535Z,36.40
2018-08-03T09:45:06.460Z,35.86
2018-08-03T09:48:30.999Z,33.84
2018-08-03T09:51:55.476Z,34.31
2018-08-03T09:55:19.936Z,33.42
2018-08-03T09:58:44.418Z,33.07
2018-08-03T10:02:08.928Z,32.30
2018-08-03T10:05:33.428Z,32.87
2018-08-03T10:08:57.851Z,32.90
2018-08-03T10:12:22.263Z,32.15
2018-08-03T10:15:46.689Z,31.28
2018-08-03T10:19:11.127Z,31.51
2018-08-03T10:22:35.556Z,30.20
2018-08-03T10:25:59.951Z,27.79
2018-08-03T10:29:24.420Z,26.05
2018-08-03T10:32:49.207Z,28.48
2018-08-03T10:36:20.345Z,25.36
2018-08-03T10:39:44.887Z,23.35
2018-08-03T10:43:09.339Z,22.95
2018-08-03T10:46:33.726Z,20.53
2018-08-03T10:49:58.459Z,17.49
2018-08-03T10:53:22.919Z,17.57
2018-08-03T10:56:47.633Z,17.97
2018-08-03T11:00:22.154Z,17.61
2018-08-03T11:03:46.605Z,17.83
2018-08-03T11:07:11.016Z,16.90
2018-08-03T11:10:36.471Z,19.39
2018-08-03T11:14:01.019Z,20.96
2018-08-03T11:17:25.407Z,21.54
2018-08-03T11:20:49.918Z,22.69
2018-08-03T11:24:15.997Z,23.11
2018-08-03T11:27:40.596Z,22.09
2018-08-03T11:31:06.558Z,22.71
2018-08-03T11:34:31.767Z,22.70
2018-08-03T11:37:56.716Z,23.60
2018-08-03T11:41:22.894Z,21.95
2018-08-03T11:44:48.463Z,22.08
2018-08-03T11:48:12.844Z,22.47
2018-08-03T11:51:38.016Z,22.35
2018-08-03T11:55:03.300Z,21.60
2018-08-03T11:58:27.916Z,21.82
2018-08-03T12:01:52.396Z,22.07
2018-08-03T12:05:16.832Z,21.10
2018-08-03T12:08:41.253Z,21.53
2018-08-03T12:12:05.714Z,21.73
2018-08-03T12:15:30.308Z,21.12
2018-08-03T12:18:54.747Z,21.27
2018-08-03T12:22:19.848Z,21.65
2018-08-03T12:25:44.510Z,22.23
2018-08-03T12:29:08.909Z,20.98
2018-08-03T12:32:33.368Z,21.73
2018-08-03T12:35:57.780Z,22.24
2018-08-03T12:39:22.307Z,20.68
2018-08-03T12:42:46.786Z,19.76
2018-08-03T12:46:11.219Z,19.09
2018-08-03T12:49:35.724Z,18.23
2018-08-03T12:53:00.213Z,17.99
2018-08-03T12:56:24.900Z,16.29
2018-08-03T12:59:49.342Z,16.44
2018-08-03T13:03:13.755Z,15.88
2018-08-03T13:06:39.645Z,15.50
2018-08-03T13:10:03.828Z,14.49
2018-08-03T13:13:28.199Z,14.61
2018-08-03T13:16:52.621Z,11.60
2018-08-03T13:20:16.743Z,10.62
2018-08-03T13:23:53.360Z,11.68
2018-08-03T13:27:18.205Z,12.58
2018-08-03T13:30:42.630Z,16.03
2018-08-03T13:34:07.209Z,17.83
2018-08-03T13:37:31.667Z,18.99
2018-08-03T13:40:56.098Z,19.65
2018-08-03T13:44:20.506Z,18.95
2018-08-03T13:47:44.928Z,20.26
2018-08-03T13:51:09.353Z,18.14
2018-08-03T13:54:33.793Z,16.24
2018-08-03T13:57:58.290Z,13.44
2018-08-03T14:01:44.394Z,15.96
2018-08-03T14:05:10.238Z,16.09
2018-08-03T14:08:35.023Z,14.77
2018-08-03T14:11:59.467Z,13.10
2018-08-03T14:15:23.671Z,14.13
2018-08-03T14:18:48.324Z,13.92
2018-08-03T14:22:12.925Z,13.01
2018-08-03T14:25:37.241Z,13.82
2018-08-03T14:29:01.641Z,13.53
2018-08-03T14:32:26.077Z,13.04
2018-08-03T14:35:50.507Z,11.57
2018-08-03T14:39:14.937Z,12.57
2018-08-03T14:42:39.354Z,11.78
2018-08-03T14:46:03.770Z,13.21
2018-08-03T14:49:28.160Z,13.84
2018-08-03T14:52:52.636Z,12.97
2018-08-03T14:56:17.068Z,14.33
2018-08-03T14:59:41.467Z,11.83
2018-08-03T15:03:05.937Z,12.36
2018-08-03T15:06:30.360Z,11.60
2018-08-03T15:09:55.462Z,11.18
2018-08-03T15:13:19.875Z,10.67
2018-08-03T15:16:44.288Z,10.63
2018-08-03T15:20:09.658Z,12.94
2018-08-03T15:23:34.068Z,12.18
2018-08-03T15:26:58.467Z,11.15
2018-08-03T15:30:22.926Z,10.32
2018-08-03T15:33:47.354Z,10.79
2018-08-03T15:37:11.787Z,10.97
2018-08-03T15:40:36.306Z,12.49
2018-08-03T15:44:00.847Z,11.01
2018-08-03T15:47:25.387Z,10.17
2018-08-03T15:50:49.770Z,10.96
2018-08-03T15:54:14.169Z,11.93
2018-08-03T15:57:38.558Z,12.23
2018-08-03T16:01:02.956Z,10.80
2018-08-03T16:04:27.386Z,10.94
2018-08-03T16:07:51.783Z,10.77
2018-08-03T16:11:16.180Z,11.69
2018-08-03T16:14:40.630Z,11.17
2018-08-03T16:18:05.747Z,11.35
2018-08-03T16:21:30.126Z,12.01
2018-08-03T16:24:54.583Z,11.55
2018-08-03T16:28:18.983Z,13.06
2018-08-03T16:31:43.439Z,12.84
2018-08-03T16:35:09.027Z,13.89
2018-08-03T16:38:33.433Z,15.13
2018-08-03T16:41:57.878Z,16.38
2018-08-03T16:45:22.384Z,16.67
2018-08-03T16:48:46.787Z,16.39
2018-08-03T16:52:11.242Z,15.87
2018-08-03T16:55:35.638Z,16.35
2018-08-03T16:59:00.123Z,16.42
2018-08-03T17:02:24.528Z,17.12
2018-08-03T17:06:08.750Z,17.26
2018-08-03T17:09:33.227Z,17.50
2018-08-03T17:12:57.641Z,18.61
2018-08-03T17:16:22.093Z,19.60
2018-08-03T17:19:46.487Z,20.29
2018-08-03T17:23:10.925Z,20.28
2018-08-03T17:26:35.359Z,19.85
2018-08-03T17:29:59.819Z,20.58
2018-08-03T17:33:24.812Z,22.83
2018-08-03T17:36:52.614Z,23.57
2018-08-03T17:40:17.600Z,24.92
2018-08-03T17:43:42.074Z,25.08
2018-08-03T17:47:06.481Z,24.92
2018-08-03T17:50:30.905Z,27.01
2018-08-03T17:53:55.400Z,29.44
2018-08-03T17:57:19.949Z,30.26
2018-08-03T18:00:44.558Z,29.10
2018-08-03T18:04:09.050Z,29.76
2018-08-03T18:07:33.585Z,29.56
2018-08-03T18:10:58.788Z,29.70
2018-08-03T18:14:23.206Z,31.01
2018-08-03T18:17:47.324Z,33.01
2018-08-03T18:21:11.736Z,32.88
2018-08-03T18:24:36.465Z,30.75
2018-08-03T18:28:01.136Z,33.24
2018-08-03T18:31:25.628Z,29.13
2018-08-03T18:34:50.068Z,33.88
2018-08-03T18:38:14.518Z,35.40
2018-08-03T18:41:39.157Z,34.31
2018-08-03T18:45:03.709Z,32.04
2018-08-03T18:48:28.330Z,35.58
2018-08-03T18:51:52.875Z,29.24
2018-08-03T18:55:17.364Z,32.61
2018-08-03T18:58:41.810Z,33.55
2018-08-03T19:02:06.461Z,33.98
2018-08-03T19:05:30.892Z,34.15
2018-08-03T19:08:55.327Z,34.79
2018-08-03T19:12:19.771Z,36.95
2018-08-03T19:15:44.249Z,35.72
2018-08-03T19:19:08.667Z,35.21
2018-08-03T19:22:33.089Z,33.78
2018-08-03T19:25:57.578Z,34.02
2018-08-03T19:29:22.966Z,34.45
2018-08-03T19:32:48.388Z,34.01
2018-08-03T19:36:13.456Z,34.23
2018-08-03T19:39:39.668Z,35.28
2018-08-03T19:43:04.273Z,34.78
2018-08-03T19:46:29.363Z,32.89
2018-08-03T19:49:55.512Z,33.63
2018-08-03T19:53:21.265Z,34.01
2018-08-03T19:56:46.030Z,34.81
2018-08-03T20:00:13.783Z,34.50
2018-08-03T20:03:39.759Z,35.95
2018-08-03T20:07:04.435Z,34.96
2018-08-03T20:10:30.685Z,34.46
2018-08-03T20:13:55.188Z,36.39
2018-08-03T20:17:19.699Z,35.53
2018-08-03T20:20:45.567Z,36.02
2018-08-03T20:24:11.188Z,35.56
2018-08-03T20:27:37.934Z,35.28
2018-08-03T20:31:04.095Z,34.67
2018-08-03T20:34:29.558Z,34.68
2018-08-03T20:37:53.995Z,35.17
2018-08-03T20:41:19.574Z,35.65
2018-08-03T20:44:45.107Z,35.58
2018-08-03T20:48:10.068Z,36.20
2018-08-03T20:51:35.443Z,34.80
2018-08-03T20:55:01.196Z,36.86
2018-08-03T20:58:28.575Z,34.95
2018-08-03T21:01:56.043Z,35.41
2018-08-03T21:05:21.947Z,36.40
2018-08-03T21:08:47.403Z,34.34
2018-08-03T21:12:12.706Z,35.91
2018-08-03T21:15:39.604Z,35.90
2018-08-03T21:19:04.866Z,35.91
2018-08-03T21:22:29.325Z,36.18
2018-08-03T21:25:53.752Z,37.09
2018-08-03T21:29:18.177Z,34.83
2018-08-03T21:32:42.705Z,34.25
2018-08-03T21:36:07.239Z,34.30
2018-08-03T21:39:31.635Z,34.29
2018-08-03T21:42:56.026Z,35.79
2018-08-03T21:46:20.472Z,35.07
2018-08-03T21:49:44.923Z,36.37
2018-08-03T21:53:09.364Z,35.31
2018-08-03T21:56:34.437Z,35.75
2018-08-03T21:59:59.006Z,36.00
2018-08-03T22:03:24.758Z,36.43
2018-08-03T22:06:55.390Z,37.03
2018-08-03T22:10:24.906Z,38.22
2018-08-03T22:13:49.378Z,37.71
2018-08-03T22:17:13.823Z,37.19
2018-08-03T22:20:38.307Z,37.29
2018-08-03T22:24:02.753Z,37.67
2018-08-03T22:27:27.227Z,37.66
2018-08-03T22:30:52.325Z,38.47
2018-08-03T22:34:16.768Z,38.01
2018-08-03T22:37:41.198Z,37.86
2018-08-03T22:41:09.497Z,38.39
2018-08-03T22:44:37.600Z,38.37
2018-08-03T22:48:02.077Z,38.74
2018-08-03T22:51:28.617Z,39.33
2018-08-03T22:55:02.765Z,39.26
2018-08-03T22:58:27.588Z,40.64
2018-08-03T23:01:52.009Z,40.03
2018-08-03T23:05:16.750Z,40.22
2018-08-03T23:08:41.209Z,40.93
2018-08-03T23:12:07.871Z,41.27
2018-08-03T23:15:32.301Z,41.32
2018-08-03T23:18:56.700Z,40.94
2018-08-03T23:22:22.344Z,42.06
2018-08-03T23:25:46.923Z,41.04
2018-08-03T23:29:13.065Z,41.27
2018-08-03T23:32:40.034Z,41.37
2018-08-03T23:36:04.686Z,41.44
2018-08-03T23:39:29.189Z,41.95
2018-08-03T23:42:57.314Z,41.30
2018-08-03T23:46:21.756Z,41.73
2018-08-03T23:49:46.289Z,42.49
2018-08-03T23:53:10.760Z,41.60
2018-08-03T23:56:35.208Z,41.77
2018-08-03T23:59:59.616Z,42.22
